Latest Coastal Weather Observations for Coles Point

IDS60701

Issued at 4:25 am CST Tuesday 2 September 2014 (issued every 10 minutes, with the page automatically refreshed every 10 minutes)

About coastal observations | Map of coastal stations | Coastal observations for SA | Marine services | Other Formats
Station Details ID: 018191 Name: COLES POINT Lat: -34.37 Lon: 135.37 Height: 28.0 m
Data from the previous 72 hours. | See also: Recent months at Coles Point
Date/Time
CST
Temp

°C
Wind Pressure Rain
since 9am
mm
Weather Cloud Vis
km
Sea
Height
m
Swell
Dir
 
Speed
knots
Gust
knots
hPa Trend Height
m
Period
s
Dir
02/04:00am 11.0 S 14 20 1025.0 - 4.0 - - - - - - -
02/03:30am 11.3 SSW 13 18 1024.6 - 4.0 - - - - - - -
02/03:00am 11.3 SSW 14 20 1024.5 - 4.0 - - - - - - -
02/02:30am 11.0 S 11 16 1024.5 - 4.0 - - - - - - -
02/02:00am 10.9 SSW 13 18 1024.5 - 4.0 - - - - - - -
02/01:30am 10.8 SSW 13 17 1024.4 - 4.0 - - - - - - -
02/01:00am 10.5 SSW 14 19 1024.5 - 4.0 - - - - - - -
02/12:47am 11.3 SSW 16 28 1024.2 - 4.0 - - - - - - -
02/12:30am 11.2 SSW 16 22 1024.1 - 4.0 - - - - - - -
02/12:00am 11.2 SSW 15 22 1024.0 - 4.0 - - - - - - -
 
Date/Time
CST
Temp

°C
Wind Pressure Rain
since 9am
mm
Weather Cloud Vis
km
Sea
Height
m
Swell
Dir
 
Speed
knots
Gust
knots
hPa Trend Height
m
Period
s
Dir
01/11:30pm 10.9 SSW 16 23 1024.0 - 4.0 - - - - - - -
01/11:00pm 11.0 SSW 13 18 1023.9 - 4.0 - - - - - - -
01/10:30pm 10.4 SSW 15 22 1023.9 - 4.0 - - - - - - -
01/10:00pm 10.2 SSW 16 27 1023.6 - 4.0 - - - - - - -
01/09:30pm 11.5 SSW 16 22 1023.1 - 3.8 - - - - - - -
01/09:00pm 11.1 SW 18 23 1022.9 - 3.8 - - - - - - -
01/08:48pm 10.7 SSW 16 27 1022.8 - 3.8 - - - - - - -
01/08:30pm 11.7 SW 18 22 1022.4 - 3.8 - - - - - - -
01/08:00pm 11.6 SSW 15 20 1021.9 - 3.8 - - - - - - -
01/07:30pm 11.5 SSW 15 22 1021.6 - 3.8 - - - - - - -
01/07:00pm 11.1 SW 16 25 1021.0 - 3.8 - - - - - - -
01/06:30pm 11.7 SSW 17 23 1020.5 - 3.8 - - - - - - -
01/06:00pm 11.4 SSW 18 26 1019.9 - 3.8 Rain - - - - - -
01/05:30pm 12.1 SW 19 24 1019.2 - 3.6 - - - - - - -
01/05:00pm 12.1 SW 17 23 1018.8 - 3.6 - - - - - - -
01/04:30pm 13.3 SW 18 24 1018.3 - 3.6 - - - - - - -
01/04:00pm 13.8 SW 18 25 1017.9 - 3.6 - - - - - - -
01/03:36pm 13.3 SW 18 28 1017.5 - 3.6 - - - - - - -
01/03:30pm 13.1 SW 17 23 1017.5 - 3.6 - - - - - - -
01/03:00pm 14.3 WSW 16 21 1017.1 - 3.6 - - - - - - -
01/02:30pm 14.0 SW 16 21 1016.8 - 3.6 - - - - - - -
01/02:00pm 13.2 SW 18 23 1016.8 - 3.6 - - - - - - -
01/01:30pm 13.9 SW 15 24 1016.6 - 3.6 - - - - - - -
01/01:00pm 13.6 SW 13 18 1016.6 - 3.6 - - - - - - -
01/12:30pm 11.5 W 6 10 1016.8 - 3.6 - - - - - - -
01/12:00pm 12.0 SW 18 24 1017.0 - 0.2 - - - - - - -
01/11:30am 15.0 W 12 16 1016.5 - 0.2 - - - - - - -
01/11:00am 14.9 WSW 12 16 1016.4 - 0.2 - - - - - - -
01/10:30am 14.8 WSW 11 14 1016.4 - 0.2 - - - - - - -
01/10:00am 14.5 WSW 9 13 1016.4 - 0.0 - - - - - - -
01/09:30am 14.3 WSW 10 13 1016.1 - 0.0 - - - - - - -
01/09:00am 13.8 SW 10 12 1016.0 - 1.6 - - - - - - -
01/08:30am 13.4 SW 8 12 1015.8 - 1.6 - - - - - - -
01/08:00am 12.4 SW 7 10 1015.4 - 1.6 - - - - - - -
01/07:30am 12.2 SW 8 11 1015.0 - 1.6 - - - - - - -
01/07:00am 11.1 SW 6 8 1014.6 - 1.6 - - - - - - -
01/06:30am 11.2 SW 7 9 1014.4 - 1.6 - - - - - - -
01/06:00am 12.2 SW 11 13 1014.4 - 1.6 - - - - - - -
01/05:30am 12.5 SW 10 13 1014.0 - 1.6 - - - - - - -
01/05:00am 12.4 SW 8 12 1013.6 - 1.6 - - - - - - -
01/04:30am 11.6 S 4 5 1013.3 - 1.6 - - - - - - -
01/04:00am 11.7 SSW 4 7 1013.1 - 1.6 - - - - - - -
01/03:30am 11.9 S 3 5 1012.9 - 1.6 - - - - - - -
01/03:00am 12.1 S 7 9 1013.1 - 1.6 - - - - - - -
01/02:30am 12.1 S 8 11 1013.0 - 1.6 - - - - - - -
01/02:00am 12.7 SW 9 12 1012.6 - 1.6 - - - - - - -
01/01:30am 12.5 SSW 12 17 1012.8 - 1.6 - - - - - - -
01/01:00am 13.2 WSW 5 7 1013.1 - 1.4 - - - - - - -
01/12:30am 13.1 SW 7 9 1013.1 - 1.4 - - - - - - -
01/12:00am 13.4 WSW 6 9 1013.0 - 1.2 - - - - - - -
 
Date/Time
CST
Temp

°C
Wind Pressure Rain
since 9am
mm
Weather Cloud Vis
km
Sea
Height
m
Swell
Dir
 
Speed
knots
Gust
knots
hPa Trend Height
m
Period
s
Dir
31/11:30pm 13.5 SW 7 9 1012.8 - 1.2 - - - - - - -
31/11:00pm 13.5 SW 7 11 1012.9 - 1.2 - - - - - - -
31/10:30pm 13.5 WSW 7 9 1013.1 - 1.2 - - - - - - -
31/10:00pm 13.4 WSW 6 7 1012.9 - 1.2 - - - - - - -
31/09:30pm 13.2 WSW 4 5 1013.0 - 1.0 - - - - - - -
31/09:00pm 13.0 SSW 4 6 1012.5 - 1.0 - - - - - - -
31/08:30pm 13.2 SSW 6 7 1012.3 - 1.0 - - - - - - -
31/08:00pm 13.1 SSW 4 5 1012.4 - 1.0 - - - - - - -
31/07:30pm 13.1 S 3 4 1012.2 - 1.0 - - - - - - -
31/07:00pm 13.2 S 3 4 1012.0 - 1.0 - - - - - - -
31/06:30pm 13.6 SSW 4 6 1012.0 - 1.0 - - - - - - -
31/06:00pm 13.7 SSW 8 11 1011.9 - 1.0 Rain - - - - - -
31/05:30pm 14.1 SSW 7 9 1011.9 - 0.2 - - - - - - -
31/05:00pm 14.5 SW 9 11 1011.5 - 0.0 - - - - - - -
31/04:30pm 15.3 SW 9 12 1011.4 - 0.0 - - - - - - -
31/04:00pm 15.9 WSW 7 9 1011.3 - 0.0 - - - - - - -
31/03:30pm 16.2 W 6 9 1010.9 - 0.0 - - - - - - -
31/03:00pm 16.3 WNW 6 8 1010.6 - 0.0 - - - - - - -
31/02:30pm 16.6 NW 11 14 1011.0 - 0.0 - - - - - - -
31/02:00pm 17.8 NNW 11 16 1010.8 - 0.0 - - - - - - -
31/01:30pm 16.7 NNW 10 14 1010.9 - 0.0 - - - - - - -
31/01:00pm 16.8 NNW 12 15 1011.5 - 0.0 - - - - - - -
31/12:30pm 16.4 NNW 10 14 1011.0 - 0.0 - - - - - - -
31/12:00pm 16.3 NNW 9 11 1011.7 - 0.0 - - - - - - -
31/11:30am 16.1 N 8 13 1011.6 - 0.0 - - - - - - -
31/11:00am 16.2 N 8 12 1012.2 - 0.0 - - - - - - -
31/10:30am 13.8 NNE 10 14 1011.8 - 0.0 - - - - - - -
31/10:19am 13.4 E 10 12 1011.0 - 0.0 - - - - - - -
31/10:00am 14.5 NNW 1 4 1013.0 - 0.0 - - - - - - -
31/09:30am 13.0 E 3 4 1014.0 - 0.0 - - - - - - -
31/09:00am 12.8 E 7 11 1013.7 - 0.0 - - - - - - -
31/08:30am 11.9 E 5 8 1013.6 - 0.0 - - - - - - -
31/08:00am 11.6 NNE 7 9 1013.1 - 0.0 - - - - - - -
31/07:30am 11.4 NE 12 14 1012.8 - 0.0 - - - - - - -
31/07:00am 12.1 NNE 12 15 1012.5 - 0.0 - - - - - - -
31/06:30am 11.2 NE 11 14 1012.4 - 0.0 - - - - - - -
31/06:00am 11.6 NE 11 13 1012.7 - 0.0 - - - - - - -
31/05:30am 11.6 NNE 7 10 1012.9 - 0.0 - - - - - - -
31/05:00am 11.6 NE 11 12 1013.1 - 0.0 - - - - - - -
31/04:30am 11.7 NE 9 10 1013.5 - 0.0 - - - - - - -
31/04:00am 12.5 NNE 5 8 1013.2 - 0.0 - - - - - - -
31/03:30am 12.0 NNW 2 4 1013.8 - 0.0 - - - - - - -
31/03:00am 10.0 NNE 1 2 1014.5 - 0.0 - - - - - - -
31/02:30am 10.6 SW 3 5 1013.9 - 0.0 - - - - - - -
31/02:00am 11.6 S 3 5 1013.8 - 0.0 - - - - - - -
31/01:30am 12.5 ENE 16 17 1013.2 - 0.0 - - - - - - -
31/01:00am 12.7 NE 15 17 1013.4 - 0.0 - - - - - - -
31/12:30am 12.3 ENE 15 16 1013.7 - 0.0 - - - - - - -
31/12:00am 12.1 ENE 14 15 1013.9 - 0.0 - - - - - - -
 
Date/Time
CST
Temp

°C
Wind Pressure Rain
since 9am
mm
Weather Cloud Vis
km
Sea
Height
m
Swell
Dir
 
Speed
knots
Gust
knots
hPa Trend Height
m
Period
s
Dir
30/11:30pm 11.8 NE 14 15 1014.1 - 0.0 - - - - - - -
30/11:00pm 12.2 NE 14 15 1014.5 - 0.0 - - - - - - -
30/10:30pm 12.4 NE 13 14 1014.8 - 0.0 - - - - - - -
30/10:00pm 12.9 NE 13 14 1015.2 - 0.0 - - - - - - -
30/09:30pm 12.8 NE 12 13 1015.4 - 0.0 - - - - - - -
30/09:00pm 13.2 NE 12 13 1015.5 - 0.0 - - - - - - -
30/08:30pm 13.4 NNE 12 13 1015.6 - 0.0 - - - - - - -
30/08:00pm 13.6 NNE 11 12 1015.7 - 0.0 - - - - - - -
30/07:30pm 14.7 NNE 9 10 1015.7 - 0.0 - - - - - - -
30/07:00pm 14.5 NNE 10 10 1015.8 - 0.0 - - - - - - -
30/06:30pm 17.6 N 10 11 1015.9 - 0.0 - - - - - - -
30/06:00pm 18.4 N 9 9 1015.9 - 0.0 - - - - - - -
30/05:30pm 19.9 N 9 11 1015.9 - 0.0 - - - - - - -
30/05:00pm 20.4 N 10 12 1016.1 - 0.0 - - - - - - -
30/04:30pm 19.0 NNW 7 9 1016.1 - 0.0 - - - - - - -
30/04:00pm 18.8 NNW 7 10 1016.4 - 0.0 - - - - - - -
30/03:30pm 18.5 NNW 8 9 1016.8 - 0.0 - - - - - - -
30/03:00pm 19.0 NNW 7 9 1016.8 - 0.0 - - - - - - -
30/02:30pm 18.7 NNW 9 11 1017.2 - 0.0 - - - - - - -
30/02:00pm 20.0 NNW 10 14 1017.4 - 0.0 - - - - - - -
30/01:30pm 18.9 NNW 10 12 1017.9 - 0.0 - - - - - - -
30/01:00pm 21.5 NNW 13 17 1018.4 - 0.0 - - - - - - -
30/12:30pm 21.4 NNW 14 20 1019.1 - 0.0 - - - - - - -
30/12:00pm 21.8 NNW 17 23 1019.5 - 0.0 - - - - - - -
30/11:30am 21.7 N 19 28 1019.8 - 0.0 - - - - - - -
30/11:00am 21.3 N 20 28 1020.1 - 0.0 - - - - - - -
30/10:40am 21.1 N 17 27 1020.4 - 0.0 - - - - - - -
30/10:30am 20.4 N 15 22 1020.6 - 0.0 - - - - - - -
30/10:00am 18.0 NNE 12 18 1021.0 - 0.0 - - - - - - -
30/09:30am 14.6 NE 13 16 1020.9 - 0.0 - - - - - - -
30/09:00am 12.1 NE 14 17 1021.3 - 0.0 - - - - - - -
30/08:30am 10.4 NE 14 16 1021.3 - 0.0 - - - - - - -
30/08:00am 9.6 NE 13 15 1021.3 - 0.0 - - - - - - -
30/07:30am 8.3 NE 13 14 1021.3 - 0.0 - - - - - - -
30/07:00am 7.8 NE 15 17 1021.0 - 0.0 - - - - - - -
30/06:30am 8.1 NE 14 16 1020.7 - 0.0 - - - - - - -
30/06:00am 8.1 NE 15 17 1020.5 - 0.0 - - - - - - -
30/05:30am 8.1 NE 15 15 1020.5 - 0.0 - - - - - - -
30/05:00am 8.1 NE 15 15 1020.5 - 0.0 - - - - - - -
30/04:30am 8.3 NE 15 16 1020.6 - 0.0 - - - - - - -

Other Formats:

Comma delimited format used in spreadsheet applications
http://www.bom.gov.au/fwo/IDS60701/IDS60701.94658.axf

JavaScript Object Notation format (JSON) in row-major order
http://www.bom.gov.au/fwo/IDS60701/IDS60701.94658.json